sensor_id;sensor_type;location;lat;lon;timestamp;temperature;humidity
12268;DHT22;6196;48.398;11.736;2024-03-08T00:00:12;2.30;99.90
12268;DHT22;6196;48.398;11.736;2024-03-08T00:02:42;2.30;99.90
12268;DHT22;6196;48.398;11.736;2024-03-08T00:05:09;2.30;99.90
12268;DHT22;6196;48.398;11.736;2024-03-08T00:07:37;2.30;99.90
12268;DHT22;6196;48.398;11.736;2024-03-08T00:10:06;2.30;99.90
12268;DHT22;6196;48.398;11.736;2024-03-08T00:12:43;2.20;99.90
12268;DHT22;6196;48.398;11.736;2024-03-08T00:15:14;2.10;99.90
12268;DHT22;6196;48.398;11.736;2024-03-08T00:17:44;2.20;99.90
12268;DHT22;6196;48.398;11.736;2024-03-08T00:20:12;2.10;99.90
12268;DHT22;6196;48.398;11.736;2024-03-08T00:22:40;2.10;99.90
12268;DHT22;6196;48.398;11.736;2024-03-08T00:25:08;2.00;99.90
12268;DHT22;6196;48.398;11.736;2024-03-08T00:27:38;2.10;99.90
12268;DHT22;6196;48.398;11.736;2024-03-08T00:30:06;2.00;99.90
12268;DHT22;6196;48.398;11.736;2024-03-08T00:32:34;1.90;99.90
12268;DHT22;6196;48.398;11.736;2024-03-08T00:35:03;2.00;99.90
12268;DHT22;6196;48.398;11.736;2024-03-08T00:37:30;2.10;99.90
12268;DHT22;6196;48.398;11.736;2024-03-08T00:39:57;2.10;99.90
12268;DHT22;6196;48.398;11.736;2024-03-08T00:42:24;2.00;99.90
12268;DHT22;6196;48.398;11.736;2024-03-08T00:44:51;2.10;99.90
12268;DHT22;6196;48.398;11.736;2024-03-08T00:47:19;2.10;99.90
12268;DHT22;6196;48.398;11.736;2024-03-08T00:49:46;2.10;99.90
12268;DHT22;6196;48.398;11.736;2024-03-08T00:52:13;2.00;99.90
12268;DHT22;6196;48.398;11.736;2024-03-08T00:54:41;2.00;99.90
12268;DHT22;6196;48.398;11.736;2024-03-08T00:57:10;2.00;99.90
12268;DHT22;6196;48.398;11.736;2024-03-08T00:59:38;2.00;99.90
12268;DHT22;6196;48.398;11.736;2024-03-08T01:02:05;2.00;99.90
12268;DHT22;6196;48.398;11.736;2024-03-08T01:04:32;2.00;99.90
12268;DHT22;6196;48.398;11.736;2024-03-08T01:07:00;1.90;99.90
12268;DHT22;6196;48.398;11.736;2024-03-08T01:09:27;1.80;99.90
12268;DHT22;6196;48.398;11.736;2024-03-08T01:11:55;1.90;99.90
12268;DHT22;6196;48.398;11.736;2024-03-08T01:14:23;1.80;99.90
12268;DHT22;6196;48.398;11.736;2024-03-08T01:16:55;1.80;99.90
12268;DHT22;6196;48.398;11.736;2024-03-08T01:19:23;1.70;99.90
12268;DHT22;6196;48.398;11.736;2024-03-08T01:21:51;1.70;99.90
12268;DHT22;6196;48.398;11.736;2024-03-08T01:24:18;1.70;99.90
12268;DHT22;6196;48.398;11.736;2024-03-08T01:26:45;1.80;99.90
12268;DHT22;6196;48.398;11.736;2024-03-08T01:29:12;1.70;99.90
12268;DHT22;6196;48.398;11.736;2024-03-08T01:31:39;1.70;99.90
12268;DHT22;6196;48.398;11.736;2024-03-08T01:34:06;1.70;99.90
12268;DHT22;6196;48.398;11.736;2024-03-08T01:36:33;1.70;99.90
12268;DHT22;6196;48.398;11.736;2024-03-08T01:39:00;1.70;99.90
12268;DHT22;6196;48.398;11.736;2024-03-08T01:41:27;1.80;99.90
12268;DHT22;6196;48.398;11.736;2024-03-08T01:43:56;1.80;99.90
12268;DHT22;6196;48.398;11.736;2024-03-08T01:46:23;1.80;99.90
12268;DHT22;6196;48.398;11.736;2024-03-08T01:48:50;1.80;99.90
12268;DHT22;6196;48.398;11.736;2024-03-08T01:51:18;1.80;99.90
12268;DHT22;6196;48.398;11.736;2024-03-08T01:53:47;1.80;99.90
12268;DHT22;6196;48.398;11.736;2024-03-08T01:56:15;1.80;99.90
12268;DHT22;6196;48.398;11.736;2024-03-08T01:58:42;1.80;99.90
12268;DHT22;6196;48.398;11.736;2024-03-08T02:01:14;1.80;99.90
12268;DHT22;6196;48.398;11.736;2024-03-08T02:03:42;1.80;99.90
12268;DHT22;6196;48.398;11.736;2024-03-08T02:06:12;1.80;99.90
12268;DHT22;6196;48.398;11.736;2024-03-08T02:08:42;1.80;99.90
12268;DHT22;6196;48.398;11.736;2024-03-08T02:11:14;1.80;99.90
12268;DHT22;6196;48.398;11.736;2024-03-08T02:13:41;1.70;99.90
12268;DHT22;6196;48.398;11.736;2024-03-08T02:16:08;1.70;99.90
12268;DHT22;6196;48.398;11.736;2024-03-08T02:18:36;1.70;99.90
12268;DHT22;6196;48.398;11.736;2024-03-08T02:21:05;1.70;99.90
12268;DHT22;6196;48.398;11.736;2024-03-08T02:23:33;1.70;99.90
12268;DHT22;6196;48.398;11.736;2024-03-08T02:26:01;1.70;99.90
12268;DHT22;6196;48.398;11.736;2024-03-08T02:28:28;1.70;99.90
12268;DHT22;6196;48.398;11.736;2024-03-08T02:30:56;1.70;99.90
12268;DHT22;6196;48.398;11.736;2024-03-08T02:33:25;1.70;99.90
12268;DHT22;6196;48.398;11.736;2024-03-08T02:35:53;1.80;99.90
12268;DHT22;6196;48.398;11.736;2024-03-08T02:38:22;1.80;99.90
12268;DHT22;6196;48.398;11.736;2024-03-08T02:40:53;1.70;99.90
12268;DHT22;6196;48.398;11.736;2024-03-08T02:43:22;1.80;99.90
12268;DHT22;6196;48.398;11.736;2024-03-08T02:45:50;1.80;99.90
12268;DHT22;6196;48.398;11.736;2024-03-08T02:48:19;1.70;99.90
12268;DHT22;6196;48.398;11.736;2024-03-08T02:50:46;1.70;99.90
12268;DHT22;6196;48.398;11.736;2024-03-08T02:53:13;1.60;99.90
12268;DHT22;6196;48.398;11.736;2024-03-08T02:55:41;1.60;99.90
12268;DHT22;6196;48.398;11.736;2024-03-08T02:58:09;1.60;99.90
12268;DHT22;6196;48.398;11.736;2024-03-08T03:00:37;1.60;99.90
12268;DHT22;6196;48.398;11.736;2024-03-08T03:03:08;1.70;99.90
12268;DHT22;6196;48.398;11.736;2024-03-08T03:05:35;1.70;99.90
12268;DHT22;6196;48.398;11.736;2024-03-08T03:08:02;1.70;99.90
12268;DHT22;6196;48.398;11.736;2024-03-08T03:10:36;1.70;99.90
12268;DHT22;6196;48.398;11.736;2024-03-08T03:13:03;1.60;99.90
12268;DHT22;6196;48.398;11.736;2024-03-08T03:15:31;1.60;99.90
12268;DHT22;6196;48.398;11.736;2024-03-08T03:18:00;1.70;99.90
12268;DHT22;6196;48.398;11.736;2024-03-08T03:20:28;1.70;99.90
12268;DHT22;6196;48.398;11.736;2024-03-08T03:23:07;1.70;99.90
12268;DHT22;6196;48.398;11.736;2024-03-08T03:25:35;1.70;99.90
12268;DHT22;6196;48.398;11.736;2024-03-08T03:28:03;1.90;99.90
12268;DHT22;6196;48.398;11.736;2024-03-08T03:30:31;1.70;99.90
12268;DHT22;6196;48.398;11.736;2024-03-08T03:33:01;1.60;99.90
12268;DHT22;6196;48.398;11.736;2024-03-08T03:35:29;1.60;99.90
12268;DHT22;6196;48.398;11.736;2024-03-08T03:37:56;1.70;99.90
12268;DHT22;6196;48.398;11.736;2024-03-08T03:40:38;1.80;99.90
12268;DHT22;6196;48.398;11.736;2024-03-08T03:43:06;1.80;99.90
12268;DHT22;6196;48.398;11.736;2024-03-08T03:45:34;1.80;99.90
12268;DHT22;6196;48.398;11.736;2024-03-08T03:48:05;1.80;99.90
12268;DHT22;6196;48.398;11.736;2024-03-08T03:50:37;1.90;99.90
12268;DHT22;6196;48.398;11.736;2024-03-08T03:53:05;2.00;99.90
12268;DHT22;6196;48.398;11.736;2024-03-08T03:55:36;2.00;99.90
12268;DHT22;6196;48.398;11.736;2024-03-08T03:58:06;2.10;99.90
12268;DHT22;6196;48.398;11.736;2024-03-08T04:00:33;2.10;99.90
12268;DHT22;6196;48.398;11.736;2024-03-08T04:03:00;2.10;99.90
12268;DHT22;6196;48.398;11.736;2024-03-08T04:05:28;2.10;99.90
12268;DHT22;6196;48.398;11.736;2024-03-08T04:07:55;2.10;99.90
12268;DHT22;6196;48.398;11.736;2024-03-08T04:10:22;2.10;99.90
12268;DHT22;6196;48.398;11.736;2024-03-08T04:12:49;2.10;99.90
12268;DHT22;6196;48.398;11.736;2024-03-08T04:15:16;2.10;99.90
12268;DHT22;6196;48.398;11.736;2024-03-08T04:17:43;2.10;99.90
12268;DHT22;6196;48.398;11.736;2024-03-08T04:20:13;2.10;99.90
12268;DHT22;6196;48.398;11.736;2024-03-08T04:22:41;2.10;99.90
12268;DHT22;6196;48.398;11.736;2024-03-08T04:25:10;2.10;99.90
12268;DHT22;6196;48.398;11.736;2024-03-08T04:27:37;2.00;99.90
12268;DHT22;6196;48.398;11.736;2024-03-08T04:30:04;2.10;99.90
12268;DHT22;6196;48.398;11.736;2024-03-08T04:32:34;2.10;99.90
12268;DHT22;6196;48.398;11.736;2024-03-08T04:35:02;2.30;99.90
12268;DHT22;6196;48.398;11.736;2024-03-08T04:37:30;2.10;99.90
12268;DHT22;6196;48.398;11.736;2024-03-08T04:39:57;2.10;99.90
12268;DHT22;6196;48.398;11.736;2024-03-08T04:42:25;2.10;99.90
12268;DHT22;6196;48.398;11.736;2024-03-08T04:44:52;2.10;99.90
12268;DHT22;6196;48.398;11.736;2024-03-08T04:47:20;2.10;99.90
12268;DHT22;6196;48.398;11.736;2024-03-08T04:49:47;2.20;99.90
12268;DHT22;6196;48.398;11.736;2024-03-08T04:52:14;2.20;99.90
12268;DHT22;6196;48.398;11.736;2024-03-08T04:54:41;2.10;99.90
12268;DHT22;6196;48.398;11.736;2024-03-08T04:57:08;2.20;99.90
12268;DHT22;6196;48.398;11.736;2024-03-08T04:59:35;2.10;99.90
12268;DHT22;6196;48.398;11.736;2024-03-08T05:02:03;2.10;99.90
12268;DHT22;6196;48.398;11.736;2024-03-08T05:04:30;2.00;99.90
12268;DHT22;6196;48.398;11.736;2024-03-08T05:06:57;2.10;99.90
12268;DHT22;6196;48.398;11.736;2024-03-08T05:09:27;2.00;99.90
12268;DHT22;6196;48.398;11.736;2024-03-08T05:11:55;2.10;99.90
12268;DHT22;6196;48.398;11.736;2024-03-08T05:14:25;2.00;99.90
12268;DHT22;6196;48.398;11.736;2024-03-08T05:16:52;1.90;99.90
12268;DHT22;6196;48.398;11.736;2024-03-08T05:19:20;1.80;99.90
12268;DHT22;6196;48.398;11.736;2024-03-08T05:21:48;1.80;99.90
12268;DHT22;6196;48.398;11.736;2024-03-08T05:24:17;1.80;99.90
12268;DHT22;6196;48.398;11.736;2024-03-08T05:26:45;1.90;99.90
12268;DHT22;6196;48.398;11.736;2024-03-08T05:29:13;1.80;99.90
12268;DHT22;6196;48.398;11.736;2024-03-08T05:31:51;1.90;99.90
12268;DHT22;6196;48.398;11.736;2024-03-08T05:34:22;1.90;99.90
12268;DHT22;6196;48.398;11.736;2024-03-08T05:36:49;1.80;99.90
12268;DHT22;6196;48.398;11.736;2024-03-08T05:39:18;1.80;99.90
12268;DHT22;6196;48.398;11.736;2024-03-08T05:41:47;1.80;99.90
12268;DHT22;6196;48.398;11.736;2024-03-08T05:44:14;1.80;99.90
12268;DHT22;6196;48.398;11.736;2024-03-08T05:46:43;1.70;99.90
12268;DHT22;6196;48.398;11.736;2024-03-08T05:49:10;1.70;99.90
12268;DHT22;6196;48.398;11.736;2024-03-08T05:51:39;1.60;99.90
12268;DHT22;6196;48.398;11.736;2024-03-08T05:54:08;1.60;99.90
12268;DHT22;6196;48.398;11.736;2024-03-08T05:56:38;1.60;99.90
12268;DHT22;6196;48.398;11.736;2024-03-08T05:59:09;1.70;99.90
12268;DHT22;6196;48.398;11.736;2024-03-08T06:01:36;1.70;99.90
12268;DHT22;6196;48.398;11.736;2024-03-08T06:04:04;1.70;99.90
12268;DHT22;6196;48.398;11.736;2024-03-08T06:06:31;1.60;99.90
12268;DHT22;6196;48.398;11.736;2024-03-08T06:08:58;1.60;99.90
12268;DHT22;6196;48.398;11.736;2024-03-08T06:11:26;1.70;99.90
12268;DHT22;6196;48.398;11.736;2024-03-08T06:13:57;1.70;99.90
12268;DHT22;6196;48.398;11.736;2024-03-08T06:16:27;1.60;99.90
12268;DHT22;6196;48.398;11.736;2024-03-08T06:18:56;1.70;99.90
12268;DHT22;6196;48.398;11.736;2024-03-08T06:21:24;1.80;99.90
12268;DHT22;6196;48.398;11.736;2024-03-08T06:23:54;1.70;99.90
12268;DHT22;6196;48.398;11.736;2024-03-08T06:26:22;1.80;99.90
12268;DHT22;6196;48.398;11.736;2024-03-08T06:28:49;1.80;99.90
12268;DHT22;6196;48.398;11.736;2024-03-08T06:31:17;1.90;99.90
12268;DHT22;6196;48.398;11.736;2024-03-08T06:33:44;2.00;99.90
12268;DHT22;6196;48.398;11.736;2024-03-08T06:36:12;2.10;99.90
12268;DHT22;6196;48.398;11.736;2024-03-08T06:38:39;2.10;99.90
12268;DHT22;6196;48.398;11.736;2024-03-08T06:41:09;2.10;99.90
12268;DHT22;6196;48.398;11.736;2024-03-08T06:43:46;2.20;99.90
12268;DHT22;6196;48.398;11.736;2024-03-08T06:46:15;2.20;99.90
12268;DHT22;6196;48.398;11.736;2024-03-08T06:48:42;2.20;99.90
12268;DHT22;6196;48.398;11.736;2024-03-08T06:51:10;2.30;99.90
12268;DHT22;6196;48.398;11.736;2024-03-08T06:53:37;2.30;99.90
12268;DHT22;6196;48.398;11.736;2024-03-08T06:56:07;2.50;99.90
12268;DHT22;6196;48.398;11.736;2024-03-08T06:58:35;2.40;99.90
12268;DHT22;6196;48.398;11.736;2024-03-08T07:01:02;2.50;99.90
12268;DHT22;6196;48.398;11.736;2024-03-08T07:03:31;2.60;99.90
12268;DHT22;6196;48.398;11.736;2024-03-08T07:05:59;2.70;99.90
12268;DHT22;6196;48.398;11.736;2024-03-08T07:08:28;2.70;99.90
12268;DHT22;6196;48.398;11.736;2024-03-08T07:10:55;2.80;99.90
12268;DHT22;6196;48.398;11.736;2024-03-08T07:13:25;2.80;99.90
12268;DHT22;6196;48.398;11.736;2024-03-08T07:15:55;3.00;99.90
12268;DHT22;6196;48.398;11.736;2024-03-08T07:18:22;3.00;99.90
12268;DHT22;6196;48.398;11.736;2024-03-08T07:20:50;3.00;99.90
12268;DHT22;6196;48.398;11.736;2024-03-08T07:23:17;3.10;99.90
12268;DHT22;6196;48.398;11.736;2024-03-08T07:26:02;3.20;99.90
12268;DHT22;6196;48.398;11.736;2024-03-08T07:28:29;3.20;99.90
12268;DHT22;6196;48.398;11.736;2024-03-08T07:31:00;3.30;99.90
12268;DHT22;6196;48.398;11.736;2024-03-08T07:33:56;3.40;99.90
12268;DHT22;6196;48.398;11.736;2024-03-08T07:36:23;3.20;99.90
12268;DHT22;6196;48.398;11.736;2024-03-08T07:38:50;3.00;99.90
12268;DHT22;6196;48.398;11.736;2024-03-08T07:41:17;3.10;99.90
12268;DHT22;6196;48.398;11.736;2024-03-08T07:43:44;3.20;99.90
12268;DHT22;6196;48.398;11.736;2024-03-08T07:46:11;3.20;99.90
12268;DHT22;6196;48.398;11.736;2024-03-08T07:48:39;3.20;99.90
12268;DHT22;6196;48.398;11.736;2024-03-08T07:51:07;3.10;99.90
12268;DHT22;6196;48.398;11.736;2024-03-08T07:53:36;3.10;99.90
12268;DHT22;6196;48.398;11.736;2024-03-08T07:56:05;3.30;99.90
12268;DHT22;6196;48.398;11.736;2024-03-08T07:58:32;3.50;99.90
12268;DHT22;6196;48.398;11.736;2024-03-08T08:01:01;3.40;99.90
12268;DHT22;6196;48.398;11.736;2024-03-08T08:03:29;3.50;99.90
12268;DHT22;6196;48.398;11.736;2024-03-08T08:05:55;3.60;99.90
12268;DHT22;6196;48.398;11.736;2024-03-08T08:08:22;3.80;99.90
12268;DHT22;6196;48.398;11.736;2024-03-08T08:10:49;3.60;99.90
12268;DHT22;6196;48.398;11.736;2024-03-08T08:13:16;3.50;99.90
12268;DHT22;6196;48.398;11.736;2024-03-08T08:15:44;3.60;99.90
12268;DHT22;6196;48.398;11.736;2024-03-08T08:18:12;3.80;99.90
12268;DHT22;6196;48.398;11.736;2024-03-08T08:20:40;3.70;99.90
12268;DHT22;6196;48.398;11.736;2024-03-08T08:23:07;4.10;99.90
12268;DHT22;6196;48.398;11.736;2024-03-08T08:25:38;4.20;99.90
12268;DHT22;6196;48.398;11.736;2024-03-08T08:28:05;4.30;99.90
12268;DHT22;6196;48.398;11.736;2024-03-08T08:30:32;4.30;99.90
12268;DHT22;6196;48.398;11.736;2024-03-08T08:32:59;4.20;99.90
12268;DHT22;6196;48.398;11.736;2024-03-08T08:35:27;4.00;99.90
12268;DHT22;6196;48.398;11.736;2024-03-08T08:37:55;4.20;99.90
12268;DHT22;6196;48.398;11.736;2024-03-08T08:40:22;4.20;99.90
12268;DHT22;6196;48.398;11.736;2024-03-08T08:42:49;4.10;99.90
12268;DHT22;6196;48.398;11.736;2024-03-08T08:45:16;4.30;99.90
12268;DHT22;6196;48.398;11.736;2024-03-08T08:47:51;4.60;99.90
12268;DHT22;6196;48.398;11.736;2024-03-08T08:50:18;4.60;99.90
12268;DHT22;6196;48.398;11.736;2024-03-08T08:52:51;4.80;99.90
12268;DHT22;6196;48.398;11.736;2024-03-08T08:55:18;5.00;99.90
12268;DHT22;6196;48.398;11.736;2024-03-08T08:57:48;5.00;99.90
12268;DHT22;6196;48.398;11.736;2024-03-08T09:00:16;5.00;99.90
12268;DHT22;6196;48.398;11.736;2024-03-08T09:02:43;5.00;99.90
12268;DHT22;6196;48.398;11.736;2024-03-08T09:05:10;5.40;99.90
12268;DHT22;6196;48.398;11.736;2024-03-08T09:07:44;5.60;99.90
12268;DHT22;6196;48.398;11.736;2024-03-08T09:10:11;5.70;99.90
12268;DHT22;6196;48.398;11.736;2024-03-08T09:12:44;6.10;99.90
12268;DHT22;6196;48.398;11.736;2024-03-08T09:15:11;6.40;99.90
12268;DHT22;6196;48.398;11.736;2024-03-08T09:17:39;6.50;99.90
12268;DHT22;6196;48.398;11.736;2024-03-08T09:20:08;6.60;99.90
12268;DHT22;6196;48.398;11.736;2024-03-08T09:22:37;6.90;99.90
12268;DHT22;6196;48.398;11.736;2024-03-08T09:25:04;7.10;99.90
12268;DHT22;6196;48.398;11.736;2024-03-08T09:27:31;7.40;99.90
12268;DHT22;6196;48.398;11.736;2024-03-08T09:29:58;7.70;99.90
12268;DHT22;6196;48.398;11.736;2024-03-08T09:32:25;8.10;99.90
12268;DHT22;6196;48.398;11.736;2024-03-08T09:34:53;8.20;99.90
12268;DHT22;6196;48.398;11.736;2024-03-08T09:37:20;8.00;99.90
12268;DHT22;6196;48.398;11.736;2024-03-08T09:39:47;8.00;99.90
12268;DHT22;6196;48.398;11.736;2024-03-08T09:42:16;8.00;99.90
12268;DHT22;6196;48.398;11.736;2024-03-08T09:44:46;8.20;99.90
12268;DHT22;6196;48.398;11.736;2024-03-08T09:47:14;8.30;99.90
12268;DHT22;6196;48.398;11.736;2024-03-08T09:49:42;8.30;99.90
12268;DHT22;6196;48.398;11.736;2024-03-08T09:52:10;8.20;99.90
12268;DHT22;6196;48.398;11.736;2024-03-08T09:54:39;8.10;99.90
12268;DHT22;6196;48.398;11.736;2024-03-08T09:57:06;7.90;99.90
12268;DHT22;6196;48.398;11.736;2024-03-08T09:59:35;8.00;99.90
12268;DHT22;6196;48.398;11.736;2024-03-08T10:02:02;8.40;99.90
12268;DHT22;6196;48.398;11.736;2024-03-08T10:04:30;8.50;99.90
12268;DHT22;6196;48.398;11.736;2024-03-08T10:07:01;8.90;99.90
12268;DHT22;6196;48.398;11.736;2024-03-08T10:09:28;8.80;99.90
12268;DHT22;6196;48.398;11.736;2024-03-08T10:11:58;8.90;99.90
12268;DHT22;6196;48.398;11.736;2024-03-08T10:14:26;8.90;99.90
12268;DHT22;6196;48.398;11.736;2024-03-08T10:16:57;9.00;99.90
12268;DHT22;6196;48.398;11.736;2024-03-08T10:19:28;9.20;99.90
12268;DHT22;6196;48.398;11.736;2024-03-08T10:21:58;9.00;99.90
12268;DHT22;6196;48.398;11.736;2024-03-08T10:24:26;8.60;99.90
12268;DHT22;6196;48.398;11.736;2024-03-08T10:26:58;8.50;99.90
12268;DHT22;6196;48.398;11.736;2024-03-08T10:29:32;8.90;99.90
12268;DHT22;6196;48.398;11.736;2024-03-08T10:31:59;9.10;99.90
12268;DHT22;6196;48.398;11.736;2024-03-08T10:34:26;9.60;99.90
12268;DHT22;6196;48.398;11.736;2024-03-08T10:36:58;9.60;99.90
12268;DHT22;6196;48.398;11.736;2024-03-08T10:39:35;9.50;99.90
12268;DHT22;6196;48.398;11.736;2024-03-08T10:42:04;9.50;99.90
12268;DHT22;6196;48.398;11.736;2024-03-08T10:45:49;9.30;99.90
12268;DHT22;6196;48.398;11.736;2024-03-08T10:47:49;9.40;99.90
12268;DHT22;6196;48.398;11.736;2024-03-08T10:50:42;10.00;99.90
12268;DHT22;6196;48.398;11.736;2024-03-08T10:53:14;10.20;99.90
12268;DHT22;6196;48.398;11.736;2024-03-08T10:55:42;10.40;99.90
12268;DHT22;6196;48.398;11.736;2024-03-08T10:58:10;10.30;99.90
12268;DHT22;6196;48.398;11.736;2024-03-08T11:00:37;10.70;99.90
12268;DHT22;6196;48.398;11.736;2024-03-08T11:03:05;11.00;99.90
12268;DHT22;6196;48.398;11.736;2024-03-08T11:05:40;11.10;99.90
12268;DHT22;6196;48.398;11.736;2024-03-08T11:08:16;11.30;99.90
12268;DHT22;6196;48.398;11.736;2024-03-08T11:10:51;11.10;99.90
12268;DHT22;6196;48.398;11.736;2024-03-08T11:16:10;11.10;99.90
12268;DHT22;6196;48.398;11.736;2024-03-08T11:18:38;11.50;99.90
12268;DHT22;6196;48.398;11.736;2024-03-08T11:21:08;11.70;99.90
12268;DHT22;6196;48.398;11.736;2024-03-08T11:23:39;11.70;99.90
12268;DHT22;6196;48.398;11.736;2024-03-08T11:26:24;12.20;99.90
12268;DHT22;6196;48.398;11.736;2024-03-08T11:28:51;12.40;99.90
12268;DHT22;6196;48.398;11.736;2024-03-08T11:31:24;13.00;99.90
12268;DHT22;6196;48.398;11.736;2024-03-08T11:33:53;13.30;99.90
12268;DHT22;6196;48.398;11.736;2024-03-08T11:36:22;13.40;99.90
12268;DHT22;6196;48.398;11.736;2024-03-08T11:38:54;13.00;99.90
12268;DHT22;6196;48.398;11.736;2024-03-08T11:41:24;12.80;99.90
12268;DHT22;6196;48.398;11.736;2024-03-08T11:44:03;12.90;99.90
12268;DHT22;6196;48.398;11.736;2024-03-08T11:46:34;12.60;99.90
12268;DHT22;6196;48.398;11.736;2024-03-08T11:49:01;12.60;99.90
12268;DHT22;6196;48.398;11.736;2024-03-08T11:51:30;12.70;99.90
12268;DHT22;6196;48.398;11.736;2024-03-08T11:53:58;13.50;99.90
12268;DHT22;6196;48.398;11.736;2024-03-08T11:56:25;13.50;99.90
12268;DHT22;6196;48.398;11.736;2024-03-08T11:58:55;13.10;99.90
12268;DHT22;6196;48.398;11.736;2024-03-08T12:01:24;13.00;99.90
12268;DHT22;6196;48.398;11.736;2024-03-08T12:03:56;13.70;99.90
12268;DHT22;6196;48.398;11.736;2024-03-08T12:06:26;14.40;99.90
12268;DHT22;6196;48.398;11.736;2024-03-08T12:08:54;14.40;99.90
12268;DHT22;6196;48.398;11.736;2024-03-08T12:11:21;14.20;99.90
12268;DHT22;6196;48.398;11.736;2024-03-08T12:13:51;13.90;99.90
12268;DHT22;6196;48.398;11.736;2024-03-08T12:16:18;13.40;99.90
12268;DHT22;6196;48.398;11.736;2024-03-08T12:18:46;13.40;99.90
12268;DHT22;6196;48.398;11.736;2024-03-08T12:21:13;13.10;99.90
12268;DHT22;6196;48.398;11.736;2024-03-08T12:23:44;12.90;99.90
12268;DHT22;6196;48.398;11.736;2024-03-08T12:26:15;13.50;99.90
12268;DHT22;6196;48.398;11.736;2024-03-08T12:28:45;14.10;99.90
12268;DHT22;6196;48.398;11.736;2024-03-08T12:31:16;14.00;99.90
12268;DHT22;6196;48.398;11.736;2024-03-08T12:33:51;14.30;99.90
12268;DHT22;6196;48.398;11.736;2024-03-08T12:36:23;14.60;99.90
12268;DHT22;6196;48.398;11.736;2024-03-08T12:38:51;15.20;99.90
12268;DHT22;6196;48.398;11.736;2024-03-08T12:41:21;15.40;99.90
12268;DHT22;6196;48.398;11.736;2024-03-08T12:43:48;15.30;99.90
12268;DHT22;6196;48.398;11.736;2024-03-08T12:46:16;15.30;99.20
12268;DHT22;6196;48.398;11.736;2024-03-08T12:48:44;15.50;99.00
12268;DHT22;6196;48.398;11.736;2024-03-08T12:51:14;15.70;98.70
12268;DHT22;6196;48.398;11.736;2024-03-08T12:53:45;16.40;99.20
12268;DHT22;6196;48.398;11.736;2024-03-08T12:56:16;17.40;97.20
12268;DHT22;6196;48.398;11.736;2024-03-08T12:58:49;18.60;95.30
12268;DHT22;6196;48.398;11.736;2024-03-08T13:01:16;18.60;93.00
12268;DHT22;6196;48.398;11.736;2024-03-08T13:03:44;18.10;92.80
12268;DHT22;6196;48.398;11.736;2024-03-08T13:06:11;18.10;92.30
12268;DHT22;6196;48.398;11.736;2024-03-08T13:08:38;18.10;92.00
12268;DHT22;6196;48.398;11.736;2024-03-08T13:11:08;18.50;92.30
12268;DHT22;6196;48.398;11.736;2024-03-08T13:13:38;19.60;89.50
12268;DHT22;6196;48.398;11.736;2024-03-08T13:16:07;18.90;88.10
12268;DHT22;6196;48.398;11.736;2024-03-08T13:18:36;19.60;89.20
12268;DHT22;6196;48.398;11.736;2024-03-08T13:21:03;20.40;87.50
12268;DHT22;6196;48.398;11.736;2024-03-08T13:23:35;20.60;86.50
12268;DHT22;6196;48.398;11.736;2024-03-08T13:26:13;21.60;85.60
12268;DHT22;6196;48.398;11.736;2024-03-08T13:28:45;21.60;81.60
12268;DHT22;6196;48.398;11.736;2024-03-08T13:31:12;21.80;81.90
12268;DHT22;6196;48.398;11.736;2024-03-08T13:33:41;21.40;79.60
12268;DHT22;6196;48.398;11.736;2024-03-08T13:36:09;21.30;78.50
12268;DHT22;6196;48.398;11.736;2024-03-08T13:38:43;20.80;79.50
12268;DHT22;6196;48.398;11.736;2024-03-08T13:41:12;21.30;79.00
12268;DHT22;6196;48.398;11.736;2024-03-08T13:43:41;20.40;77.90
12268;DHT22;6196;48.398;11.736;2024-03-08T13:46:09;19.80;79.80
12268;DHT22;6196;48.398;11.736;2024-03-08T13:48:37;20.60;78.80
12268;DHT22;6196;48.398;11.736;2024-03-08T13:51:05;21.50;78.40
12268;DHT22;6196;48.398;11.736;2024-03-08T13:53:37;22.20;74.10
12268;DHT22;6196;48.398;11.736;2024-03-08T13:56:04;21.30;73.70
12268;DHT22;6196;48.398;11.736;2024-03-08T13:58:32;20.10;74.60
12268;DHT22;6196;48.398;11.736;2024-03-08T14:00:59;19.80;75.80
12268;DHT22;6196;48.398;11.736;2024-03-08T14:03:27;19.60;76.20
12268;DHT22;6196;48.398;11.736;2024-03-08T14:05:54;18.90;77.00
12268;DHT22;6196;48.398;11.736;2024-03-08T14:08:22;19.00;77.10
12268;DHT22;6196;48.398;11.736;2024-03-08T14:10:51;18.80;75.90
12268;DHT22;6196;48.398;11.736;2024-03-08T14:13:20;19.00;77.10
12268;DHT22;6196;48.398;11.736;2024-03-08T14:15:47;19.70;76.40
12268;DHT22;6196;48.398;11.736;2024-03-08T14:18:15;21.00;75.30
12268;DHT22;6196;48.398;11.736;2024-03-08T14:20:42;21.60;72.00
12268;DHT22;6196;48.398;11.736;2024-03-08T14:23:09;21.10;70.30
12268;DHT22;6196;48.398;11.736;2024-03-08T14:25:36;20.50;70.90
12268;DHT22;6196;48.398;11.736;2024-03-08T14:28:04;21.10;71.00
12268;DHT22;6196;48.398;11.736;2024-03-08T14:30:34;21.20;71.50
12268;DHT22;6196;48.398;11.736;2024-03-08T14:33:02;21.50;71.80
12268;DHT22;6196;48.398;11.736;2024-03-08T14:35:30;22.20;69.90
12268;DHT22;6196;48.398;11.736;2024-03-08T14:37:57;22.80;69.60
12268;DHT22;6196;48.398;11.736;2024-03-08T14:40:25;24.00;67.40
12268;DHT22;6196;48.398;11.736;2024-03-08T14:42:53;24.30;66.50
12268;DHT22;6196;48.398;11.736;2024-03-08T14:45:20;24.50;64.80
12268;DHT22;6196;48.398;11.736;2024-03-08T14:47:47;25.20;63.10
12268;DHT22;6196;48.398;11.736;2024-03-08T14:50:20;25.90;60.40
12268;DHT22;6196;48.398;11.736;2024-03-08T14:52:49;25.30;59.40
12268;DHT22;6196;48.398;11.736;2024-03-08T14:55:21;24.10;59.80
12268;DHT22;6196;48.398;11.736;2024-03-08T14:57:52;23.00;61.80
12268;DHT22;6196;48.398;11.736;2024-03-08T15:00:20;21.70;63.70
12268;DHT22;6196;48.398;11.736;2024-03-08T15:02:54;21.00;64.40
12268;DHT22;6196;48.398;11.736;2024-03-08T15:05:21;20.50;65.90
12268;DHT22;6196;48.398;11.736;2024-03-08T15:07:53;19.50;65.90
12268;DHT22;6196;48.398;11.736;2024-03-08T15:10:21;19.40;66.90
12268;DHT22;6196;48.398;11.736;2024-03-08T15:12:52;19.30;67.20
12268;DHT22;6196;48.398;11.736;2024-03-08T15:15:22;19.40;67.10
12268;DHT22;6196;48.398;11.736;2024-03-08T15:17:51;19.30;67.60
12268;DHT22;6196;48.398;11.736;2024-03-08T15:20:21;19.50;67.80
12268;DHT22;6196;48.398;11.736;2024-03-08T15:22:56;19.50;68.20
12268;DHT22;6196;48.398;11.736;2024-03-08T15:25:25;19.20;69.30
12268;DHT22;6196;48.398;11.736;2024-03-08T15:27:53;19.70;68.30
12268;DHT22;6196;48.398;11.736;2024-03-08T15:30:23;19.50;68.10
12268;DHT22;6196;48.398;11.736;2024-03-08T15:32:53;19.20;68.50
12268;DHT22;6196;48.398;11.736;2024-03-08T15:35:24;20.10;68.80
12268;DHT22;6196;48.398;11.736;2024-03-08T15:37:53;20.40;67.20
12268;DHT22;6196;48.398;11.736;2024-03-08T15:40:22;19.00;68.70
12268;DHT22;6196;48.398;11.736;2024-03-08T15:42:55;17.80;70.70
12268;DHT22;6196;48.398;11.736;2024-03-08T15:45:23;16.80;72.90
12268;DHT22;6196;48.398;11.736;2024-03-08T15:47:53;15.80;74.10
12268;DHT22;6196;48.398;11.736;2024-03-08T15:50:21;14.50;76.70
12268;DHT22;6196;48.398;11.736;2024-03-08T15:52:51;13.60;80.40
12268;DHT22;6196;48.398;11.736;2024-03-08T15:55:21;12.70;81.30